createdAt,value
2023-05-08T00:00:22.270Z,100.00
2023-05-08T00:02:49.229Z,100.00
2023-05-08T00:05:16.597Z,100.00
2023-05-08T00:07:43.752Z,100.00
2023-05-08T00:10:11.224Z,100.00
2023-05-08T00:12:38.851Z,100.00
2023-05-08T00:15:06.785Z,100.00
2023-05-08T00:17:34.147Z,100.00
2023-05-08T00:20:01.037Z,100.00
2023-05-08T00:22:27.966Z,100.00
2023-05-08T00:24:55.044Z,100.00
2023-05-08T00:27:21.889Z,100.00
2023-05-08T00:29:49.113Z,100.00
2023-05-08T00:32:16.299Z,100.00
2023-05-08T00:34:43.273Z,100.00
2023-05-08T00:37:10.272Z,100.00
2023-05-08T00:39:37.278Z,100.00
2023-05-08T00:42:04.192Z,100.00
2023-05-08T00:44:31.230Z,100.00
2023-05-08T00:46:58.509Z,100.00
2023-05-08T00:49:26.246Z,100.00
2023-05-08T00:51:55.857Z,100.00
2023-05-08T00:54:23.361Z,100.00
2023-05-08T00:56:52.013Z,100.00
2023-05-08T00:59:21.139Z,100.00
2023-05-08T01:01:49.280Z,100.00
2023-05-08T01:04:21.325Z,100.00
2023-05-08T01:06:49.630Z,100.00
2023-05-08T01:09:16.454Z,100.00
2023-05-08T01:11:55.750Z,100.00
2023-05-08T01:14:29.696Z,100.00
2023-05-08T01:17:12.282Z,100.00
2023-05-08T01:20:04.081Z,100.00
2023-05-08T01:23:05.332Z,100.00
2023-05-08T01:25:56.654Z,100.00
2023-05-08T01:28:34.259Z,100.00
2023-05-08T01:31:22.909Z,100.00
2023-05-08T01:34:12.161Z,100.00
2023-05-08T01:36:51.120Z,100.00
2023-05-08T01:39:21.662Z,100.00
2023-05-08T01:42:00.717Z,100.00
2023-05-08T01:44:36.869Z,100.00
2023-05-08T01:47:08.002Z,100.00
2023-05-08T01:49:42.186Z,100.00
2023-05-08T01:52:33.398Z,100.00
2023-05-08T01:55:06.071Z,100.00
2023-05-08T01:57:37.216Z,100.00
2023-05-08T02:00:06.194Z,100.00
2023-05-08T02:02:38.303Z,100.00
2023-05-08T02:05:07.566Z,100.00
2023-05-08T02:07:38.053Z,100.00
2023-05-08T02:10:06.535Z,100.00
2023-05-08T02:12:34.834Z,100.00
2023-05-08T02:15:03.286Z,100.00
2023-05-08T02:17:32.055Z,100.00
2023-05-08T02:20:02.429Z,100.00
2023-05-08T02:22:32.310Z,100.00
2023-05-08T02:24:59.263Z,100.00
2023-05-08T02:27:29.178Z,100.00
2023-05-08T02:29:57.721Z,100.00
2023-05-08T02:32:27.025Z,100.00
2023-05-08T02:35:03.004Z,100.00
2023-05-08T02:37:32.236Z,100.00
2023-05-08T02:40:02.201Z,100.00
2023-05-08T02:42:30.607Z,100.00
2023-05-08T02:44:59.038Z,100.00
2023-05-08T02:47:29.895Z,100.00
2023-05-08T02:50:17.471Z,100.00
2023-05-08T02:52:49.274Z,100.00
2023-05-08T02:55:34.561Z,100.00
2023-05-08T02:58:29.580Z,100.00
2023-05-08T03:01:08.391Z,100.00
2023-05-08T03:03:42.255Z,100.00
2023-05-08T03:06:13.925Z,100.00
2023-05-08T03:08:43.191Z,100.00
2023-05-08T03:11:15.248Z,100.00
2023-05-08T03:13:44.984Z,100.00
2023-05-08T03:16:18.532Z,100.00
2023-05-08T03:18:52.485Z,100.00
2023-05-08T03:21:22.522Z,100.00
2023-05-08T03:23:52.921Z,100.00
2023-05-08T03:26:21.304Z,100.00
2023-05-08T03:28:50.570Z,100.00
2023-05-08T03:31:23.749Z,100.00
2023-05-08T03:33:54.643Z,100.00
2023-05-08T03:36:22.675Z,100.00
2023-05-08T03:38:49.905Z,100.00
2023-05-08T03:41:17.119Z,100.00
2023-05-08T03:43:44.309Z,100.00
2023-05-08T03:46:12.412Z,100.00
2023-05-08T03:48:40.592Z,100.00
2023-05-08T03:51:07.515Z,100.00
2023-05-08T03:53:37.218Z,100.00
2023-05-08T03:56:04.860Z,100.00
2023-05-08T03:58:41.639Z,100.00
2023-05-08T04:01:18.734Z,100.00
2023-05-08T04:04:09.569Z,100.00
2023-05-08T04:07:08.575Z,100.00
2023-05-08T04:09:41.642Z,100.00
2023-05-08T04:12:38.911Z,100.00
2023-05-08T04:15:14.296Z,100.00
2023-05-08T04:17:50.937Z,100.00
2023-05-08T04:20:26.060Z,100.00
2023-05-08T04:22:55.978Z,100.00
2023-05-08T04:25:25.120Z,100.00
2023-05-08T04:27:53.329Z,100.00
2023-05-08T04:30:22.419Z,100.00
2023-05-08T04:32:50.687Z,100.00
2023-05-08T04:35:18.030Z,100.00
2023-05-08T04:37:47.419Z,100.00
2023-05-08T04:40:14.959Z,100.00
2023-05-08T04:42:47.589Z,100.00
2023-05-08T04:45:18.037Z,100.00
2023-05-08T04:47:45.313Z,100.00
2023-05-08T04:50:12.433Z,100.00
2023-05-08T04:52:39.836Z,100.00
2023-05-08T04:55:07.510Z,100.00
2023-05-08T04:57:36.358Z,100.00
2023-05-08T05:00:03.737Z,100.00
2023-05-08T05:02:32.924Z,100.00
2023-05-08T05:05:01.601Z,100.00
2023-05-08T05:07:29.850Z,100.00
2023-05-08T05:09:57.525Z,100.00
2023-05-08T05:12:24.574Z,100.00
2023-05-08T05:14:51.813Z,100.00
2023-05-08T05:17:18.844Z,100.00
2023-05-08T05:19:45.827Z,100.00
2023-05-08T05:22:12.864Z,100.00
2023-05-08T05:24:40.957Z,100.00
2023-05-08T05:27:08.205Z,100.00
2023-05-08T05:29:35.418Z,100.00
2023-05-08T05:32:03.248Z,100.00
2023-05-08T05:34:30.433Z,100.00
2023-05-08T05:36:57.722Z,100.00
2023-05-08T05:39:25.068Z,100.00
2023-05-08T05:41:52.132Z,100.00
2023-05-08T05:44:19.296Z,100.00
2023-05-08T05:46:46.680Z,100.00
2023-05-08T05:49:13.636Z,100.00
2023-05-08T05:51:40.873Z,100.00
2023-05-08T05:54:08.994Z,100.00
2023-05-08T05:56:36.171Z,100.00
2023-05-08T05:59:03.729Z,100.00
2023-05-08T06:01:30.579Z,100.00
2023-05-08T06:03:58.479Z,100.00
2023-05-08T06:06:25.565Z,100.00
2023-05-08T06:08:53.618Z,100.00
2023-05-08T06:11:22.918Z,100.00
2023-05-08T06:13:50.685Z,100.00
2023-05-08T06:16:20.720Z,100.00
2023-05-08T06:18:47.765Z,100.00
2023-05-08T06:21:14.624Z,100.00
2023-05-08T06:23:42.885Z,100.00
2023-05-08T06:26:09.847Z,100.00
2023-05-08T06:28:36.719Z,100.00
2023-05-08T06:31:03.808Z,100.00
2023-05-08T06:33:31.707Z,100.00
2023-05-08T06:35:58.632Z,100.00
2023-05-08T06:38:25.586Z,100.00
2023-05-08T06:40:52.500Z,100.00
2023-05-08T06:43:19.392Z,100.00
2023-05-08T06:45:46.501Z,100.00
2023-05-08T06:48:13.659Z,100.00
2023-05-08T06:50:41.077Z,100.00
2023-05-08T06:53:09.026Z,100.00
2023-05-08T06:55:36.200Z,100.00
2023-05-08T06:58:03.206Z,100.00
2023-05-08T07:00:30.026Z,100.00
2023-05-08T07:02:56.957Z,100.00
2023-05-08T07:05:23.960Z,100.00
2023-05-08T07:07:50.859Z,100.00
2023-05-08T07:10:19.970Z,100.00
2023-05-08T07:12:47.118Z,100.00
2023-05-08T07:15:25.634Z,100.00
2023-05-08T07:17:54.006Z,100.00
2023-05-08T07:20:21.618Z,100.00
2023-05-08T07:22:48.663Z,100.00
2023-05-08T07:25:16.284Z,100.00
2023-05-08T07:27:43.543Z,100.00
2023-05-08T07:30:10.762Z,100.00
2023-05-08T07:32:39.390Z,100.00
2023-05-08T07:35:10.946Z,100.00
2023-05-08T07:37:40.537Z,100.00
2023-05-08T07:40:08.812Z,100.00
2023-05-08T07:42:42.884Z,100.00
2023-05-08T07:45:11.902Z,100.00
2023-05-08T07:47:48.288Z,100.00
2023-05-08T07:50:15.353Z,100.00
2023-05-08T07:52:42.274Z,100.00
2023-05-08T07:55:09.553Z,100.00
2023-05-08T07:57:40.757Z,100.00
2023-05-08T08:00:10.875Z,100.00
2023-05-08T08:02:41.757Z,100.00
2023-05-08T08:05:09.194Z,100.00
2023-05-08T08:07:36.236Z,100.00
2023-05-08T08:10:05.024Z,100.00
2023-05-08T08:12:32.300Z,100.00
2023-05-08T08:14:59.177Z,100.00
2023-05-08T08:17:28.963Z,100.00
2023-05-08T08:19:57.230Z,100.00
2023-05-08T08:22:25.544Z,100.00
2023-05-08T08:24:55.115Z,100.00
2023-05-08T08:27:22.597Z,100.00
2023-05-08T08:29:51.201Z,100.00
2023-05-08T08:32:19.936Z,100.00
2023-05-08T08:34:46.854Z,100.00
2023-05-08T08:37:13.679Z,100.00
2023-05-08T08:39:40.742Z,100.00
2023-05-08T08:42:07.586Z,100.00
2023-05-08T08:44:34.677Z,100.00
2023-05-08T08:47:03.088Z,100.00
2023-05-08T08:49:34.519Z,100.00
2023-05-08T08:52:28.467Z,100.00
2023-05-08T08:54:57.452Z,100.00
2023-05-08T08:57:27.720Z,100.00
2023-05-08T08:59:56.133Z,100.00
2023-05-08T09:02:24.486Z,100.00
2023-05-08T09:04:51.845Z,100.00
2023-05-08T09:07:18.801Z,100.00
2023-05-08T09:09:47.060Z,100.00
2023-05-08T09:12:14.608Z,100.00
2023-05-08T09:14:41.603Z,100.00
2023-05-08T09:17:09.763Z,100.00
2023-05-08T09:19:36.767Z,100.00
2023-05-08T09:22:04.387Z,100.00
2023-05-08T09:25:09.816Z,100.00
2023-05-08T09:27:37.078Z,100.00
2023-05-08T09:30:12.417Z,100.00
2023-05-08T09:32:41.878Z,100.00
2023-05-08T09:35:10.439Z,100.00
2023-05-08T09:37:43.358Z,100.00
2023-05-08T09:40:14.530Z,100.00
2023-05-08T09:42:41.577Z,100.00
2023-05-08T09:45:09.515Z,100.00
2023-05-08T09:47:40.213Z,100.00
2023-05-08T09:50:11.219Z,100.00
2023-05-08T09:52:45.849Z,100.00
2023-05-08T09:55:12.845Z,100.00
2023-05-08T09:57:51.671Z,100.00
2023-05-08T10:00:18.973Z,100.00
2023-05-08T10:02:59.380Z,100.00
2023-05-08T10:05:27.253Z,100.00
2023-05-08T10:07:54.241Z,100.00
2023-05-08T10:10:28.877Z,100.00
2023-05-08T10:12:57.324Z,100.00
2023-05-08T10:15:26.184Z,100.00
2023-05-08T10:18:07.255Z,100.00
2023-05-08T10:20:39.217Z,100.00
2023-05-08T10:23:12.132Z,100.00
2023-05-08T10:25:45.267Z,100.00
2023-05-08T10:28:37.293Z,100.00
2023-05-08T10:31:07.232Z,100.00
2023-05-08T10:33:35.296Z,100.00
2023-05-08T10:36:03.012Z,100.00
2023-05-08T10:38:31.633Z,100.00
2023-05-08T10:41:01.687Z,100.00
2023-05-08T10:43:31.132Z,100.00
2023-05-08T10:46:02.872Z,100.00
2023-05-08T10:48:47.138Z,100.00
2023-05-08T10:51:22.633Z,100.00
2023-05-08T10:53:55.690Z,100.00
2023-05-08T10:56:27.335Z,100.00
2023-05-08T10:58:58.568Z,99.08
2023-05-08T11:01:26.859Z,100.00
2023-05-08T11:03:56.112Z,99.36
2023-05-08T11:06:45.062Z,100.00
2023-05-08T11:09:29.853Z,100.00
2023-05-08T11:12:10.486Z,97.81
2023-05-08T11:14:42.166Z,99.02
2023-05-08T11:17:10.307Z,95.41
2023-05-08T11:19:38.034Z,92.33
2023-05-08T11:22:13.845Z,95.92
2023-05-08T11:24:47.628Z,91.13
2023-05-08T11:27:15.757Z,93.28
2023-05-08T11:29:42.754Z,92.73
2023-05-08T11:32:09.719Z,94.13
2023-05-08T11:34:42.835Z,93.27
2023-05-08T11:37:11.422Z,92.04
2023-05-08T11:39:38.294Z,86.67
2023-05-08T11:42:29.758Z,82.36
2023-05-08T11:45:08.230Z,79.94
2023-05-08T11:47:48.688Z,78.97
2023-05-08T11:50:16.070Z,78.97
2023-05-08T11:52:43.688Z,78.38
2023-05-08T11:55:13.175Z,75.51
2023-05-08T11:57:40.100Z,75.73
2023-05-08T12:00:11.797Z,76.91
2023-05-08T12:02:41.314Z,77.31
2023-05-08T12:05:09.839Z,78.34
2023-05-08T12:07:44.692Z,78.15
2023-05-08T12:10:12.025Z,79.11
2023-05-08T12:12:40.362Z,77.99
2023-05-08T12:15:12.665Z,76.97
2023-05-08T12:17:39.862Z,77.30
2023-05-08T12:20:14.973Z,77.12
2023-05-08T12:22:43.396Z,77.37
2023-05-08T12:25:12.051Z,77.20
2023-05-08T12:27:39.355Z,75.45
2023-05-08T12:30:08.733Z,77.75
2023-05-08T12:32:38.886Z,76.26
2023-05-08T12:35:07.629Z,76.35
2023-05-08T12:37:34.674Z,77.09
2023-05-08T12:40:02.532Z,75.57
2023-05-08T12:43:05.104Z,74.28
2023-05-08T12:45:35.825Z,75.30
2023-05-08T12:48:05.912Z,74.96
2023-05-08T12:50:38.655Z,75.41
2023-05-08T12:53:07.152Z,76.36
2023-05-08T12:55:36.397Z,75.46
2023-05-08T12:58:05.162Z,75.92
2023-05-08T13:00:39.529Z,75.77
2023-05-08T13:03:08.807Z,73.33
2023-05-08T13:05:37.364Z,74.76
2023-05-08T13:08:11.543Z,75.69
2023-05-08T13:10:51.729Z,75.44
2023-05-08T13:13:20.877Z,72.34
2023-05-08T13:15:48.922Z,72.02
2023-05-08T13:18:17.138Z,73.44
2023-05-08T13:20:44.465Z,74.83
2023-05-08T13:23:11.681Z,76.52
2023-05-08T13:25:39.330Z,74.56
2023-05-08T13:28:07.897Z,73.60
2023-05-08T13:30:36.780Z,71.93
2023-05-08T13:33:04.629Z,74.45
2023-05-08T13:35:33.007Z,75.57
2023-05-08T13:38:00.052Z,74.40
2023-05-08T13:40:28.219Z,72.54
2023-05-08T13:42:55.322Z,71.64
2023-05-08T13:45:22.501Z,71.57
2023-05-08T13:47:50.695Z,72.15
2023-05-08T13:50:21.973Z,71.47
2023-05-08T13:52:50.506Z,71.34
2023-05-08T13:55:21.321Z,73.94
2023-05-08T13:57:48.829Z,74.55
2023-05-08T14:00:16.311Z,73.68
2023-05-08T14:02:43.267Z,72.02
2023-05-08T14:05:10.578Z,72.91
2023-05-08T14:07:37.657Z,72.49
2023-05-08T14:10:05.124Z,73.51
2023-05-08T14:12:36.160Z,74.89
2023-05-08T14:15:07.030Z,76.69
2023-05-08T14:17:34.021Z,76.75
2023-05-08T14:20:01.209Z,79.87
2023-05-08T14:22:28.114Z,81.23
2023-05-08T14:24:55.316Z,81.61
2023-05-08T14:27:22.605Z,81.36
2023-05-08T14:29:49.647Z,83.01
2023-05-08T14:32:16.526Z,84.33
2023-05-08T14:34:43.544Z,86.50
2023-05-08T14:37:11.355Z,90.86
2023-05-08T14:39:38.274Z,96.78
2023-05-08T14:42:21.970Z,100.00
2023-05-08T14:44:50.163Z,100.00
2023-05-08T14:47:17.635Z,100.00
2023-05-08T14:49:44.556Z,100.00
2023-05-08T14:52:11.397Z,100.00
2023-05-08T14:54:38.579Z,100.00
2023-05-08T14:57:05.662Z,100.00
2023-05-08T14:59:33.101Z,100.00
2023-05-08T15:02:00.126Z,100.00
2023-05-08T15:04:27.479Z,100.00
2023-05-08T15:06:54.568Z,100.00
2023-05-08T15:09:21.353Z,100.00
2023-05-08T15:11:48.348Z,100.00
2023-05-08T15:14:15.411Z,100.00
2023-05-08T15:16:42.316Z,100.00
2023-05-08T15:19:09.748Z,100.00
2023-05-08T15:21:36.937Z,100.00
2023-05-08T15:24:04.111Z,100.00
2023-05-08T15:26:31.107Z,100.00
2023-05-08T15:28:58.132Z,100.00
2023-05-08T15:31:25.038Z,100.00
2023-05-08T15:33:51.996Z,100.00
2023-05-08T15:36:18.877Z,100.00
2023-05-08T15:38:45.985Z,100.00
2023-05-08T15:41:15.472Z,100.00
2023-05-08T15:43:45.209Z,100.00
2023-05-08T15:46:12.302Z,100.00
2023-05-08T15:48:39.527Z,100.00
2023-05-08T15:51:06.746Z,100.00
2023-05-08T15:53:34.340Z,100.00
2023-05-08T15:56:01.383Z,100.00
2023-05-08T15:58:28.567Z,100.00
2023-05-08T16:00:56.994Z,100.00
2023-05-08T16:03:24.458Z,100.00
2023-05-08T16:05:51.482Z,100.00
2023-05-08T16:08:18.696Z,100.00
2023-05-08T16:10:45.627Z,100.00
2023-05-08T16:13:12.565Z,100.00
2023-05-08T16:15:39.485Z,100.00
2023-05-08T16:18:08.005Z,100.00
2023-05-08T16:20:35.953Z,100.00
2023-05-08T16:23:03.436Z,100.00
2023-05-08T16:25:30.577Z,100.00
2023-05-08T16:27:57.776Z,100.00
2023-05-08T16:30:24.759Z,100.00
2023-05-08T16:32:51.776Z,100.00
2023-05-08T16:35:19.704Z,100.00
2023-05-08T16:37:46.903Z,100.00
2023-05-08T16:40:13.910Z,100.00
2023-05-08T16:42:40.894Z,100.00
2023-05-08T16:45:08.804Z,100.00
2023-05-08T16:47:36.082Z,100.00
2023-05-08T16:50:05.024Z,100.00
2023-05-08T16:52:33.046Z,100.00
2023-05-08T16:55:10.203Z,100.00
2023-05-08T16:57:37.538Z,100.00
2023-05-08T17:00:05.722Z,100.00
2023-05-08T17:02:32.618Z,100.00
2023-05-08T17:05:00.174Z,100.00
2023-05-08T17:07:27.482Z,100.00
2023-05-08T17:09:58.133Z,100.00
2023-05-08T17:12:25.288Z,100.00
2023-05-08T17:14:52.108Z,100.00
2023-05-08T17:17:18.969Z,100.00
2023-05-08T17:19:46.043Z,100.00
2023-05-08T17:22:13.217Z,100.00
2023-05-08T17:24:40.115Z,100.00
2023-05-08T17:27:08.041Z,100.00
2023-05-08T17:29:35.598Z,100.00
2023-05-08T17:32:03.212Z,100.00
2023-05-08T17:34:30.595Z,100.00
2023-05-08T17:36:57.671Z,100.00
2023-05-08T17:39:24.679Z,100.00
2023-05-08T17:41:51.894Z,100.00
2023-05-08T17:44:19.018Z,100.00
2023-05-08T17:46:46.287Z,100.00
2023-05-08T17:49:15.420Z,100.00
2023-05-08T17:51:43.583Z,100.00
2023-05-08T17:54:10.417Z,100.00
2023-05-08T17:56:37.316Z,100.00
2023-05-08T17:59:04.158Z,100.00
2023-05-08T18:01:31.386Z,100.00
2023-05-08T18:03:58.197Z,100.00
2023-05-08T18:06:25.122Z,100.00
2023-05-08T18:08:52.150Z,100.00
2023-05-08T18:11:23.758Z,100.00
2023-05-08T18:13:52.317Z,100.00
2023-05-08T18:16:21.320Z,100.00
2023-05-08T18:18:49.462Z,100.00
2023-05-08T18:21:16.421Z,100.00
2023-05-08T18:23:43.528Z,100.00
2023-05-08T18:26:17.203Z,100.00
2023-05-08T18:28:44.486Z,100.00
2023-05-08T18:31:12.254Z,100.00
2023-05-08T18:33:39.501Z,100.00
2023-05-08T18:36:07.409Z,100.00
2023-05-08T18:38:34.991Z,100.00
2023-05-08T18:41:03.867Z,100.00
2023-05-08T18:43:31.734Z,100.00
2023-05-08T18:46:00.590Z,100.00
2023-05-08T18:48:27.846Z,100.00
2023-05-08T18:50:58.726Z,100.00
2023-05-08T18:53:25.861Z,100.00
2023-05-08T18:55:53.022Z,100.00
2023-05-08T18:58:20.301Z,100.00
2023-05-08T19:00:47.426Z,100.00
2023-05-08T19:03:14.776Z,100.00
2023-05-08T19:05:42.336Z,100.00
2023-05-08T19:08:09.341Z,100.00
2023-05-08T19:10:36.284Z,100.00
2023-05-08T19:13:03.634Z,100.00
2023-05-08T19:15:31.135Z,100.00
2023-05-08T19:17:58.066Z,100.00
2023-05-08T19:20:25.293Z,100.00
2023-05-08T19:22:52.130Z,100.00
2023-05-08T19:25:19.283Z,100.00
2023-05-08T19:27:46.430Z,100.00
2023-05-08T19:30:13.791Z,100.00
2023-05-08T19:32:40.802Z,100.00
2023-05-08T19:35:09.364Z,100.00
2023-05-08T19:37:36.493Z,100.00
2023-05-08T19:40:03.913Z,100.00
2023-05-08T19:42:31.378Z,100.00
2023-05-08T19:44:58.207Z,100.00
2023-05-08T19:47:25.076Z,100.00
2023-05-08T19:49:52.200Z,100.00
2023-05-08T19:52:19.845Z,100.00
2023-05-08T19:54:46.846Z,100.00
2023-05-08T19:57:13.929Z,100.00
2023-05-08T19:59:40.850Z,100.00
2023-05-08T20:02:07.800Z,100.00
2023-05-08T20:04:48.645Z,100.00
2023-05-08T20:07:21.956Z,100.00
2023-05-08T20:09:48.938Z,100.00
2023-05-08T20:12:15.828Z,100.00
2023-05-08T20:14:42.999Z,100.00
2023-05-08T20:17:10.107Z,100.00
2023-05-08T20:19:37.174Z,100.00
2023-05-08T20:22:04.315Z,100.00
2023-05-08T20:24:32.368Z,100.00
2023-05-08T20:26:59.393Z,100.00
2023-05-08T20:29:26.829Z,100.00
2023-05-08T20:31:54.517Z,100.00
2023-05-08T20:34:22.047Z,100.00
2023-05-08T20:36:49.293Z,100.00
2023-05-08T20:39:16.303Z,100.00
2023-05-08T20:41:43.415Z,100.00
2023-05-08T20:44:12.512Z,100.00
2023-05-08T20:46:40.881Z,100.00
2023-05-08T20:49:07.870Z,100.00
2023-05-08T20:51:36.548Z,100.00
2023-05-08T20:54:04.438Z,100.00
2023-05-08T20:56:32.309Z,100.00
2023-05-08T20:58:59.168Z,100.00
2023-05-08T21:01:26.253Z,100.00
2023-05-08T21:03:53.244Z,100.00
2023-05-08T21:06:20.176Z,100.00
2023-05-08T21:08:47.571Z,100.00
2023-05-08T21:11:14.992Z,100.00
2023-05-08T21:13:44.480Z,100.00
2023-05-08T21:16:11.938Z,100.00
2023-05-08T21:18:39.015Z,100.00
2023-05-08T21:21:14.858Z,100.00
2023-05-08T21:23:41.883Z,100.00
2023-05-08T21:26:08.736Z,100.00
2023-05-08T21:28:36.004Z,100.00
2023-05-08T21:31:03.150Z,100.00
2023-05-08T21:33:30.647Z,100.00
2023-05-08T21:35:59.051Z,100.00
2023-05-08T21:38:25.941Z,100.00
2023-05-08T21:40:53.727Z,100.00
2023-05-08T21:43:20.537Z,100.00
2023-05-08T21:45:47.438Z,100.00
2023-05-08T21:48:14.358Z,100.00
2023-05-08T21:50:41.191Z,100.00
2023-05-08T21:53:08.409Z,100.00
2023-05-08T21:55:35.557Z,100.00
2023-05-08T21:58:02.466Z,100.00
2023-05-08T22:00:29.452Z,100.00
2023-05-08T22:02:56.928Z,100.00
2023-05-08T22:05:24.497Z,100.00
2023-05-08T22:07:51.614Z,100.00
2023-05-08T22:10:18.566Z,100.00
2023-05-08T22:12:46.185Z,100.00
2023-05-08T22:15:28.340Z,100.00
2023-05-08T22:17:57.886Z,100.00
2023-05-08T22:20:25.815Z,100.00
2023-05-08T22:22:53.005Z,100.00
2023-05-08T22:25:21.870Z,100.00
2023-05-08T22:27:49.103Z,100.00
2023-05-08T22:30:16.065Z,100.00
2023-05-08T22:32:43.036Z,100.00
2023-05-08T22:35:10.327Z,100.00
2023-05-08T22:37:38.068Z,100.00
2023-05-08T22:40:06.058Z,100.00
2023-05-08T22:42:33.059Z,100.00
2023-05-08T22:44:59.957Z,100.00
2023-05-08T22:47:26.939Z,100.00
2023-05-08T22:49:54.493Z,100.00
2023-05-08T22:52:21.650Z,100.00
2023-05-08T22:54:48.484Z,100.00
2023-05-08T22:57:15.784Z,100.00
2023-05-08T22:59:42.878Z,100.00
2023-05-08T23:02:09.749Z,100.00
2023-05-08T23:04:36.904Z,100.00
2023-05-08T23:07:04.030Z,100.00
2023-05-08T23:09:31.084Z,100.00
2023-05-08T23:11:58.334Z,100.00
2023-05-08T23:14:25.555Z,100.00
2023-05-08T23:16:52.456Z,100.00
2023-05-08T23:19:19.463Z,100.00
2023-05-08T23:21:46.478Z,100.00
2023-05-08T23:24:13.386Z,100.00
2023-05-08T23:26:42.142Z,100.00
2023-05-08T23:29:09.151Z,100.00
2023-05-08T23:31:36.156Z,100.00
2023-05-08T23:34:03.253Z,100.00
2023-05-08T23:36:30.606Z,100.00
2023-05-08T23:38:57.817Z,100.00
2023-05-08T23:41:26.431Z,100.00
2023-05-08T23:43:53.491Z,100.00
2023-05-08T23:46:20.494Z,100.00
2023-05-08T23:48:48.035Z,100.00
2023-05-08T23:51:15.744Z,100.00
2023-05-08T23:53:42.858Z,100.00
2023-05-08T23:56:09.845Z,100.00
2023-05-08T23:58:36.838Z,100.00
